createdAt,value
2022-11-22T00:09:06.081Z,7.93
2022-11-22T00:38:58.081Z,6.29
2022-11-22T01:08:41.337Z,4.76
2022-11-22T01:23:32.701Z,3.16
2022-11-22T01:38:23.241Z,5.11
2022-11-22T01:53:14.953Z,3.97
2022-11-22T02:08:15.818Z,3.80
2022-11-22T02:23:11.461Z,2.03
2022-11-22T02:38:08.727Z,2.86
2022-11-22T02:53:03.316Z,4.54
2022-11-22T03:07:54.354Z,4.94
2022-11-22T03:22:45.732Z,4.40
2022-11-22T03:37:36.432Z,5.97
2022-11-22T03:52:26.551Z,6.39
2022-11-22T04:07:17.193Z,3.03
2022-11-22T04:22:08.240Z,7.47
2022-11-22T04:36:59.295Z,7.87
2022-11-22T04:52:08.100Z,9.03
2022-11-22T05:07:04.460Z,6.93
2022-11-22T05:21:54.884Z,8.31
2022-11-22T05:36:45.725Z,9.06
2022-11-22T05:51:36.520Z,7.30
2022-11-22T06:06:27.452Z,8.44
2022-11-22T06:21:18.969Z,7.02
2022-11-22T06:36:10.031Z,6.88
2022-11-22T06:51:05.985Z,6.03
2022-11-22T07:05:52.576Z,6.59
2022-11-22T07:20:43.563Z,7.81
2022-11-22T07:35:34.466Z,5.06
2022-11-22T07:50:25.440Z,6.09
2022-11-22T08:05:15.591Z,5.87
2022-11-22T08:20:07.056Z,5.66
2022-11-22T08:34:59.305Z,6.08
2022-11-22T08:49:50.000Z,5.01
2022-11-22T09:04:40.351Z,5.42
2022-11-22T09:19:31.843Z,4.34
2022-11-22T09:34:22.900Z,4.04
2022-11-22T09:49:30.082Z,3.52
2022-11-22T10:04:26.064Z,7.27
2022-11-22T10:19:17.238Z,7.69
2022-11-22T10:34:29.508Z,5.79
2022-11-22T10:49:50.009Z,7.48
2022-11-22T11:04:47.589Z,5.03
2022-11-22T11:19:39.605Z,5.71
2022-11-22T11:34:31.409Z,5.13
2022-11-22T11:49:22.852Z,4.20
2022-11-22T12:04:14.378Z,1.96
2022-11-22T12:19:11.063Z,3.12
2022-11-22T12:34:14.374Z,2.01
2022-11-22T12:49:22.353Z,2.97
2022-11-22T13:04:19.847Z,1.51
2022-11-22T13:19:13.074Z,2.31
2022-11-22T13:34:03.558Z,3.22
2022-11-22T14:03:45.852Z,0.92
2022-11-22T14:34:22.825Z,4.16
2022-11-22T14:49:28.139Z,2.13
2022-11-22T15:09:18.218Z,2.63
2022-11-22T16:04:30.789Z,2.68
2022-11-22T16:19:26.438Z,3.81
2022-11-22T16:34:17.015Z,4.33
2022-11-22T16:49:19.591Z,1.92
2022-11-22T17:34:23.044Z,3.68
2022-11-22T17:49:15.974Z,3.78
2022-11-22T18:04:04.977Z,4.43
2022-11-22T18:18:58.114Z,4.66
2022-11-22T18:33:46.739Z,4.67
2022-11-22T18:48:36.843Z,5.78
2022-11-22T19:18:44.467Z,4.68
2022-11-22T19:33:38.044Z,4.60
2022-11-22T19:48:28.919Z,5.20
2022-11-22T20:03:18.671Z,3.59
2022-11-22T20:18:09.301Z,5.89
2022-11-22T20:32:59.325Z,3.26
2022-11-22T20:47:50.228Z,4.83
2022-11-22T21:02:41.138Z,5.53
2022-11-22T21:32:48.663Z,5.53
2022-11-22T21:47:39.868Z,2.74
2022-11-22T22:02:30.130Z,3.66
2022-11-22T22:17:20.105Z,6.11
2022-11-22T22:32:10.953Z,5.37
2022-11-22T22:47:00.715Z,4.88
2022-11-22T23:01:52.517Z,3.48
2022-11-22T23:16:41.707Z,3.18
2022-11-22T23:31:31.799Z,3.12
2022-11-22T23:46:22.014Z,4.73
